sensor_id;sensor_type;location;lat;lon;timestamp;P1;durP1;ratioP1;P2;durP2;ratioP2
39454;SDS011;25155;41.890;23.446;2023-06-26T00:00:59;6.15;;;4.75;;
39454;SDS011;25155;41.890;23.446;2023-06-26T00:03:26;10.70;;;7.63;;
39454;SDS011;25155;41.890;23.446;2023-06-26T00:05:54;13.10;;;7.18;;
39454;SDS011;25155;41.890;23.446;2023-06-26T00:08:26;11.57;;;8.48;;
39454;SDS011;25155;41.890;23.446;2023-06-26T00:10:54;15.52;;;11.00;;
39454;SDS011;25155;41.890;23.446;2023-06-26T00:13:22;11.90;;;8.50;;
39454;SDS011;25155;41.890;23.446;2023-06-26T00:15:50;16.08;;;11.13;;
39454;SDS011;25155;41.890;23.446;2023-06-26T00:18:20;10.05;;;7.72;;
39454;SDS011;25155;41.890;23.446;2023-06-26T00:20:48;10.35;;;8.38;;
39454;SDS011;25155;41.890;23.446;2023-06-26T00:23:16;10.68;;;7.40;;
39454;SDS011;25155;41.890;23.446;2023-06-26T00:25:43;12.45;;;8.40;;
39454;SDS011;25155;41.890;23.446;2023-06-26T00:28:12;10.05;;;8.80;;
39454;SDS011;25155;41.890;23.446;2023-06-26T00:30:39;12.50;;;9.98;;
39454;SDS011;25155;41.890;23.446;2023-06-26T00:33:06;13.02;;;10.05;;
39454;SDS011;25155;41.890;23.446;2023-06-26T00:35:33;17.23;;;11.52;;
39454;SDS011;25155;41.890;23.446;2023-06-26T00:38:02;27.02;;;12.13;;
39454;SDS011;25155;41.890;23.446;2023-06-26T00:40:29;10.40;;;8.05;;
39454;SDS011;25155;41.890;23.446;2023-06-26T00:42:56;13.63;;;9.88;;
39454;SDS011;25155;41.890;23.446;2023-06-26T00:45:25;14.85;;;11.20;;
39454;SDS011;25155;41.890;23.446;2023-06-26T00:47:52;11.50;;;9.57;;
39454;SDS011;25155;41.890;23.446;2023-06-26T00:50:20;8.55;;;6.95;;
39454;SDS011;25155;41.890;23.446;2023-06-26T00:52:47;10.65;;;7.15;;
39454;SDS011;25155;41.890;23.446;2023-06-26T00:55:14;9.77;;;6.60;;
39454;SDS011;25155;41.890;23.446;2023-06-26T00:57:41;6.93;;;5.60;;
39454;SDS011;25155;41.890;23.446;2023-06-26T01:00:11;9.27;;;7.25;;
39454;SDS011;25155;41.890;23.446;2023-06-26T01:02:41;7.05;;;6.10;;
39454;SDS011;25155;41.890;23.446;2023-06-26T01:05:08;10.55;;;8.30;;
39454;SDS011;25155;41.890;23.446;2023-06-26T01:07:38;6.60;;;5.68;;
39454;SDS011;25155;41.890;23.446;2023-06-26T01:10:07;6.95;;;5.50;;
39454;SDS011;25155;41.890;23.446;2023-06-26T01:12:34;6.70;;;5.47;;
39454;SDS011;25155;41.890;23.446;2023-06-26T01:15:04;6.05;;;5.03;;
39454;SDS011;25155;41.890;23.446;2023-06-26T01:17:32;12.88;;;9.00;;
39454;SDS011;25155;41.890;23.446;2023-06-26T01:20:01;8.68;;;7.43;;
39454;SDS011;25155;41.890;23.446;2023-06-26T01:22:34;8.68;;;7.22;;
39454;SDS011;25155;41.890;23.446;2023-06-26T01:25:12;8.63;;;7.18;;
39454;SDS011;25155;41.890;23.446;2023-06-26T01:27:47;8.80;;;6.40;;
39454;SDS011;25155;41.890;23.446;2023-06-26T01:30:16;8.60;;;6.80;;
39454;SDS011;25155;41.890;23.446;2023-06-26T01:32:46;7.85;;;6.30;;
39454;SDS011;25155;41.890;23.446;2023-06-26T01:35:14;7.80;;;6.40;;
39454;SDS011;25155;41.890;23.446;2023-06-26T01:37:44;16.08;;;10.38;;
39454;SDS011;25155;41.890;23.446;2023-06-26T01:40:11;14.57;;;11.13;;
39454;SDS011;25155;41.890;23.446;2023-06-26T01:42:38;21.27;;;12.18;;
39454;SDS011;25155;41.890;23.446;2023-06-26T01:45:10;14.95;;;11.63;;
39454;SDS011;25155;41.890;23.446;2023-06-26T01:47:43;16.02;;;11.57;;
39454;SDS011;25155;41.890;23.446;2023-06-26T01:50:17;17.27;;;11.18;;
39454;SDS011;25155;41.890;23.446;2023-06-26T01:52:51;18.90;;;13.18;;
39454;SDS011;25155;41.890;23.446;2023-06-26T01:55:28;22.75;;;14.10;;
39454;SDS011;25155;41.890;23.446;2023-06-26T01:58:01;17.13;;;13.68;;
39454;SDS011;25155;41.890;23.446;2023-06-26T02:00:30;16.48;;;12.63;;
39454;SDS011;25155;41.890;23.446;2023-06-26T02:02:58;21.95;;;13.93;;
39454;SDS011;25155;41.890;23.446;2023-06-26T02:05:26;19.35;;;13.75;;
39454;SDS011;25155;41.890;23.446;2023-06-26T02:07:53;19.80;;;13.82;;
39454;SDS011;25155;41.890;23.446;2023-06-26T02:10:20;18.65;;;12.93;;
39454;SDS011;25155;41.890;23.446;2023-06-26T02:12:47;16.15;;;12.45;;
39454;SDS011;25155;41.890;23.446;2023-06-26T02:15:14;15.10;;;11.23;;
39454;SDS011;25155;41.890;23.446;2023-06-26T02:17:44;11.93;;;9.70;;
39454;SDS011;25155;41.890;23.446;2023-06-26T02:20:13;13.43;;;10.90;;
39454;SDS011;25155;41.890;23.446;2023-06-26T02:22:41;13.68;;;9.55;;
39454;SDS011;25155;41.890;23.446;2023-06-26T02:25:08;10.85;;;8.18;;
39454;SDS011;25155;41.890;23.446;2023-06-26T02:27:38;9.95;;;7.15;;
39454;SDS011;25155;41.890;23.446;2023-06-26T02:30:05;9.75;;;7.60;;
39454;SDS011;25155;41.890;23.446;2023-06-26T02:32:34;8.02;;;6.45;;
39454;SDS011;25155;41.890;23.446;2023-06-26T02:35:03;8.40;;;6.15;;
39454;SDS011;25155;41.890;23.446;2023-06-26T02:37:31;15.20;;;9.07;;
39454;SDS011;25155;41.890;23.446;2023-06-26T02:39:58;10.23;;;8.52;;
39454;SDS011;25155;41.890;23.446;2023-06-26T02:42:26;11.23;;;9.80;;
39454;SDS011;25155;41.890;23.446;2023-06-26T02:44:53;9.23;;;8.25;;
39454;SDS011;25155;41.890;23.446;2023-06-26T02:47:20;8.45;;;7.55;;
39454;SDS011;25155;41.890;23.446;2023-06-26T02:49:47;7.85;;;6.53;;
39454;SDS011;25155;41.890;23.446;2023-06-26T02:52:16;8.07;;;6.35;;
39454;SDS011;25155;41.890;23.446;2023-06-26T02:54:44;7.55;;;6.30;;
39454;SDS011;25155;41.890;23.446;2023-06-26T02:57:11;7.97;;;7.05;;
39454;SDS011;25155;41.890;23.446;2023-06-26T02:59:40;8.63;;;6.90;;
39454;SDS011;25155;41.890;23.446;2023-06-26T03:02:07;6.47;;;5.60;;
39454;SDS011;25155;41.890;23.446;2023-06-26T03:04:35;7.30;;;5.97;;
39454;SDS011;25155;41.890;23.446;2023-06-26T03:07:02;6.85;;;5.72;;
39454;SDS011;25155;41.890;23.446;2023-06-26T03:09:32;6.25;;;4.93;;
39454;SDS011;25155;41.890;23.446;2023-06-26T03:11:59;6.07;;;5.05;;
39454;SDS011;25155;41.890;23.446;2023-06-26T03:14:26;6.40;;;5.15;;
39454;SDS011;25155;41.890;23.446;2023-06-26T03:16:55;8.85;;;6.85;;
39454;SDS011;25155;41.890;23.446;2023-06-26T03:19:23;7.63;;;6.18;;
39454;SDS011;25155;41.890;23.446;2023-06-26T03:21:50;6.85;;;5.80;;
39454;SDS011;25155;41.890;23.446;2023-06-26T03:24:18;7.45;;;6.20;;
39454;SDS011;25155;41.890;23.446;2023-06-26T03:26:46;8.25;;;7.05;;
39454;SDS011;25155;41.890;23.446;2023-06-26T03:29:14;10.80;;;8.95;;
39454;SDS011;25155;41.890;23.446;2023-06-26T03:31:41;9.20;;;8.23;;
39454;SDS011;25155;41.890;23.446;2023-06-26T03:34:08;8.98;;;7.95;;
39454;SDS011;25155;41.890;23.446;2023-06-26T03:36:35;7.03;;;6.15;;
39454;SDS011;25155;41.890;23.446;2023-06-26T03:39:03;9.07;;;7.28;;
39454;SDS011;25155;41.890;23.446;2023-06-26T03:41:30;8.35;;;7.00;;
39454;SDS011;25155;41.890;23.446;2023-06-26T03:43:59;8.90;;;7.43;;
39454;SDS011;25155;41.890;23.446;2023-06-26T03:46:27;6.85;;;6.05;;
39454;SDS011;25155;41.890;23.446;2023-06-26T03:48:55;6.25;;;5.20;;
39454;SDS011;25155;41.890;23.446;2023-06-26T03:51:22;9.60;;;7.90;;
39454;SDS011;25155;41.890;23.446;2023-06-26T03:53:49;9.77;;;8.55;;
39454;SDS011;25155;41.890;23.446;2023-06-26T03:56:17;9.80;;;7.90;;
39454;SDS011;25155;41.890;23.446;2023-06-26T03:58:44;8.27;;;7.10;;
39454;SDS011;25155;41.890;23.446;2023-06-26T04:01:12;10.07;;;8.43;;
39454;SDS011;25155;41.890;23.446;2023-06-26T04:03:39;9.98;;;7.90;;
39454;SDS011;25155;41.890;23.446;2023-06-26T04:06:06;12.88;;;8.90;;
39454;SDS011;25155;41.890;23.446;2023-06-26T04:08:35;10.65;;;9.05;;
39454;SDS011;25155;41.890;23.446;2023-06-26T04:11:02;9.63;;;7.85;;
39454;SDS011;25155;41.890;23.446;2023-06-26T04:13:29;10.82;;;8.43;;
39454;SDS011;25155;41.890;23.446;2023-06-26T04:15:56;11.05;;;9.13;;
39454;SDS011;25155;41.890;23.446;2023-06-26T04:18:25;12.25;;;9.80;;
39454;SDS011;25155;41.890;23.446;2023-06-26T04:21:05;13.98;;;10.68;;
39454;SDS011;25155;41.890;23.446;2023-06-26T04:23:35;14.88;;;11.07;;
39454;SDS011;25155;41.890;23.446;2023-06-26T04:26:03;14.93;;;11.45;;
39454;SDS011;25155;41.890;23.446;2023-06-26T04:28:31;13.70;;;10.70;;
39454;SDS011;25155;41.890;23.446;2023-06-26T04:30:58;12.18;;;10.30;;
39454;SDS011;25155;41.890;23.446;2023-06-26T04:33:27;17.05;;;11.60;;
39454;SDS011;25155;41.890;23.446;2023-06-26T04:35:54;13.02;;;10.48;;
39454;SDS011;25155;41.890;23.446;2023-06-26T04:38:22;13.10;;;10.35;;
39454;SDS011;25155;41.890;23.446;2023-06-26T04:40:49;12.65;;;9.90;;
39454;SDS011;25155;41.890;23.446;2023-06-26T04:43:16;15.32;;;11.30;;
39454;SDS011;25155;41.890;23.446;2023-06-26T04:45:43;15.90;;;11.80;;
39454;SDS011;25155;41.890;23.446;2023-06-26T04:48:10;15.23;;;11.60;;
39454;SDS011;25155;41.890;23.446;2023-06-26T04:50:39;15.40;;;12.68;;
39454;SDS011;25155;41.890;23.446;2023-06-26T04:53:06;15.38;;;12.52;;
39454;SDS011;25155;41.890;23.446;2023-06-26T04:55:34;14.40;;;10.82;;
39454;SDS011;25155;41.890;23.446;2023-06-26T04:58:02;12.10;;;10.45;;
39454;SDS011;25155;41.890;23.446;2023-06-26T05:00:29;13.93;;;10.70;;
39454;SDS011;25155;41.890;23.446;2023-06-26T05:02:57;10.82;;;9.63;;
39454;SDS011;25155;41.890;23.446;2023-06-26T05:05:26;11.70;;;10.18;;
39454;SDS011;25155;41.890;23.446;2023-06-26T05:07:55;13.98;;;11.93;;
39454;SDS011;25155;41.890;23.446;2023-06-26T05:10:22;15.02;;;12.02;;
39454;SDS011;25155;41.890;23.446;2023-06-26T05:12:50;13.40;;;12.00;;
39454;SDS011;25155;41.890;23.446;2023-06-26T05:15:17;12.82;;;11.20;;
39454;SDS011;25155;41.890;23.446;2023-06-26T05:17:44;14.23;;;12.32;;
39454;SDS011;25155;41.890;23.446;2023-06-26T05:20:11;14.48;;;11.40;;
39454;SDS011;25155;41.890;23.446;2023-06-26T05:22:38;14.18;;;11.95;;
39454;SDS011;25155;41.890;23.446;2023-06-26T05:25:08;13.88;;;11.60;;
39454;SDS011;25155;41.890;23.446;2023-06-26T05:27:37;15.17;;;12.17;;
39454;SDS011;25155;41.890;23.446;2023-06-26T05:30:04;14.10;;;11.63;;
39454;SDS011;25155;41.890;23.446;2023-06-26T05:32:33;14.43;;;11.75;;
39454;SDS011;25155;41.890;23.446;2023-06-26T05:35:02;15.95;;;12.27;;
39454;SDS011;25155;41.890;23.446;2023-06-26T05:37:30;13.65;;;11.60;;
39454;SDS011;25155;41.890;23.446;2023-06-26T05:39:59;13.23;;;11.82;;
39454;SDS011;25155;41.890;23.446;2023-06-26T05:42:30;13.98;;;12.07;;
39454;SDS011;25155;41.890;23.446;2023-06-26T05:44:57;13.35;;;11.80;;
39454;SDS011;25155;41.890;23.446;2023-06-26T05:47:25;11.98;;;10.10;;
39454;SDS011;25155;41.890;23.446;2023-06-26T05:49:52;10.32;;;9.23;;
39454;SDS011;25155;41.890;23.446;2023-06-26T05:52:19;11.13;;;9.48;;
39454;SDS011;25155;41.890;23.446;2023-06-26T05:54:47;12.07;;;10.77;;
39454;SDS011;25155;41.890;23.446;2023-06-26T05:57:15;14.38;;;11.95;;
39454;SDS011;25155;41.890;23.446;2023-06-26T05:59:45;16.73;;;13.63;;
39454;SDS011;25155;41.890;23.446;2023-06-26T06:02:13;15.98;;;13.20;;
39454;SDS011;25155;41.890;23.446;2023-06-26T06:04:40;11.48;;;9.55;;
39454;SDS011;25155;41.890;23.446;2023-06-26T06:07:07;12.90;;;11.13;;
39454;SDS011;25155;41.890;23.446;2023-06-26T06:09:34;12.75;;;11.27;;
39454;SDS011;25155;41.890;23.446;2023-06-26T06:12:03;12.73;;;11.00;;
39454;SDS011;25155;41.890;23.446;2023-06-26T06:14:31;12.15;;;10.38;;
39454;SDS011;25155;41.890;23.446;2023-06-26T06:17:00;10.85;;;9.38;;
39454;SDS011;25155;41.890;23.446;2023-06-26T06:19:27;11.38;;;10.18;;
39454;SDS011;25155;41.890;23.446;2023-06-26T06:21:54;12.55;;;10.60;;
39454;SDS011;25155;41.890;23.446;2023-06-26T06:24:21;12.40;;;9.95;;
39454;SDS011;25155;41.890;23.446;2023-06-26T06:26:49;10.65;;;9.20;;
39454;SDS011;25155;41.890;23.446;2023-06-26T06:29:16;9.88;;;8.40;;
39454;SDS011;25155;41.890;23.446;2023-06-26T06:31:44;12.43;;;9.43;;
39454;SDS011;25155;41.890;23.446;2023-06-26T06:34:13;11.07;;;8.50;;
39454;SDS011;25155;41.890;23.446;2023-06-26T06:36:40;11.35;;;9.40;;
39454;SDS011;25155;41.890;23.446;2023-06-26T06:39:07;11.77;;;9.82;;
39454;SDS011;25155;41.890;23.446;2023-06-26T06:41:34;12.25;;;9.63;;
39454;SDS011;25155;41.890;23.446;2023-06-26T06:44:01;13.85;;;11.82;;
39454;SDS011;25155;41.890;23.446;2023-06-26T06:46:29;13.82;;;11.52;;
39454;SDS011;25155;41.890;23.446;2023-06-26T06:48:56;13.35;;;11.65;;
39454;SDS011;25155;41.890;23.446;2023-06-26T06:51:24;15.82;;;11.70;;
39454;SDS011;25155;41.890;23.446;2023-06-26T06:53:51;17.98;;;13.13;;
39454;SDS011;25155;41.890;23.446;2023-06-26T06:56:18;15.20;;;12.02;;
39454;SDS011;25155;41.890;23.446;2023-06-26T06:58:46;13.95;;;11.13;;
39454;SDS011;25155;41.890;23.446;2023-06-26T07:01:13;10.77;;;9.68;;
39454;SDS011;25155;41.890;23.446;2023-06-26T07:03:40;12.40;;;10.20;;
39454;SDS011;25155;41.890;23.446;2023-06-26T07:06:07;14.25;;;12.30;;
39454;SDS011;25155;41.890;23.446;2023-06-26T07:08:36;12.65;;;10.75;;
39454;SDS011;25155;41.890;23.446;2023-06-26T07:11:03;15.82;;;12.70;;
39454;SDS011;25155;41.890;23.446;2023-06-26T07:13:31;11.95;;;10.65;;
39454;SDS011;25155;41.890;23.446;2023-06-26T07:15:58;11.88;;;10.18;;
39454;SDS011;25155;41.890;23.446;2023-06-26T07:18:25;12.95;;;11.40;;
39454;SDS011;25155;41.890;23.446;2023-06-26T07:20:52;11.80;;;10.60;;
39454;SDS011;25155;41.890;23.446;2023-06-26T07:23:19;13.02;;;10.85;;
39454;SDS011;25155;41.890;23.446;2023-06-26T07:25:48;12.23;;;10.05;;
39454;SDS011;25155;41.890;23.446;2023-06-26T07:28:15;12.70;;;10.32;;
39454;SDS011;25155;41.890;23.446;2023-06-26T07:30:42;13.45;;;10.50;;
39454;SDS011;25155;41.890;23.446;2023-06-26T07:33:09;13.43;;;10.90;;
39454;SDS011;25155;41.890;23.446;2023-06-26T07:35:36;12.20;;;10.05;;
39454;SDS011;25155;41.890;23.446;2023-06-26T07:38:03;14.82;;;9.88;;
39454;SDS011;25155;41.890;23.446;2023-06-26T07:40:31;12.70;;;9.60;;
39454;SDS011;25155;41.890;23.446;2023-06-26T07:42:59;11.65;;;8.95;;
39454;SDS011;25155;41.890;23.446;2023-06-26T07:45:26;13.77;;;10.13;;
39454;SDS011;25155;41.890;23.446;2023-06-26T07:47:53;11.20;;;9.77;;
39454;SDS011;25155;41.890;23.446;2023-06-26T07:50:21;12.27;;;9.43;;
39454;SDS011;25155;41.890;23.446;2023-06-26T07:52:49;10.57;;;8.15;;
39454;SDS011;25155;41.890;23.446;2023-06-26T07:55:17;10.82;;;8.52;;
39454;SDS011;25155;41.890;23.446;2023-06-26T07:57:44;11.35;;;8.77;;
39454;SDS011;25155;41.890;23.446;2023-06-26T08:00:13;10.68;;;8.52;;
39454;SDS011;25155;41.890;23.446;2023-06-26T08:02:41;9.63;;;7.55;;
39454;SDS011;25155;41.890;23.446;2023-06-26T08:05:08;12.30;;;8.90;;
39454;SDS011;25155;41.890;23.446;2023-06-26T08:07:35;10.38;;;8.50;;
39454;SDS011;25155;41.890;23.446;2023-06-26T08:10:03;12.25;;;8.30;;
39454;SDS011;25155;41.890;23.446;2023-06-26T08:12:30;13.95;;;10.27;;
39454;SDS011;25155;41.890;23.446;2023-06-26T08:14:57;9.88;;;7.72;;
39454;SDS011;25155;41.890;23.446;2023-06-26T08:17:29;12.38;;;9.45;;
39454;SDS011;25155;41.890;23.446;2023-06-26T08:19:56;10.63;;;8.25;;
39454;SDS011;25155;41.890;23.446;2023-06-26T08:22:23;10.23;;;8.30;;
39454;SDS011;25155;41.890;23.446;2023-06-26T08:24:50;9.57;;;8.43;;
39454;SDS011;25155;41.890;23.446;2023-06-26T08:27:17;11.52;;;8.30;;
39454;SDS011;25155;41.890;23.446;2023-06-26T08:29:44;10.18;;;7.72;;
39454;SDS011;25155;41.890;23.446;2023-06-26T08:32:11;8.52;;;6.65;;
39454;SDS011;25155;41.890;23.446;2023-06-26T08:34:40;10.27;;;8.13;;
39454;SDS011;25155;41.890;23.446;2023-06-26T08:37:07;10.55;;;8.13;;
39454;SDS011;25155;41.890;23.446;2023-06-26T08:39:35;8.23;;;7.15;;
39454;SDS011;25155;41.890;23.446;2023-06-26T08:42:02;9.30;;;7.43;;
39454;SDS011;25155;41.890;23.446;2023-06-26T08:44:29;9.35;;;6.88;;
39454;SDS011;25155;41.890;23.446;2023-06-26T08:46:58;6.90;;;6.07;;
39454;SDS011;25155;41.890;23.446;2023-06-26T08:49:28;8.93;;;7.30;;
39454;SDS011;25155;41.890;23.446;2023-06-26T08:52:05;9.93;;;7.18;;
39454;SDS011;25155;41.890;23.446;2023-06-26T08:54:43;9.02;;;6.90;;
39454;SDS011;25155;41.890;23.446;2023-06-26T08:57:14;9.95;;;6.50;;
39454;SDS011;25155;41.890;23.446;2023-06-26T08:59:44;10.77;;;7.43;;
39454;SDS011;25155;41.890;23.446;2023-06-26T09:02:12;7.95;;;6.10;;
39454;SDS011;25155;41.890;23.446;2023-06-26T09:04:40;10.07;;;6.88;;
39454;SDS011;25155;41.890;23.446;2023-06-26T09:07:08;7.85;;;6.07;;
39454;SDS011;25155;41.890;23.446;2023-06-26T09:09:36;9.60;;;6.40;;
39454;SDS011;25155;41.890;23.446;2023-06-26T09:12:03;7.45;;;6.43;;
39454;SDS011;25155;41.890;23.446;2023-06-26T09:14:31;9.23;;;7.40;;
39454;SDS011;25155;41.890;23.446;2023-06-26T09:16:58;10.27;;;6.85;;
39454;SDS011;25155;41.890;23.446;2023-06-26T09:19:25;11.15;;;6.18;;
39454;SDS011;25155;41.890;23.446;2023-06-26T09:21:53;8.77;;;6.80;;
39454;SDS011;25155;41.890;23.446;2023-06-26T09:24:23;7.18;;;6.00;;
39454;SDS011;25155;41.890;23.446;2023-06-26T09:26:51;8.35;;;6.68;;
39454;SDS011;25155;41.890;23.446;2023-06-26T09:29:18;9.48;;;7.05;;
39454;SDS011;25155;41.890;23.446;2023-06-26T09:31:46;8.52;;;7.10;;
39454;SDS011;25155;41.890;23.446;2023-06-26T09:34:13;10.85;;;7.43;;
39454;SDS011;25155;41.890;23.446;2023-06-26T09:36:40;7.45;;;6.68;;
39454;SDS011;25155;41.890;23.446;2023-06-26T09:39:12;10.27;;;7.18;;
39454;SDS011;25155;41.890;23.446;2023-06-26T09:41:42;8.85;;;7.13;;
39454;SDS011;25155;41.890;23.446;2023-06-26T09:44:10;12.63;;;7.85;;
39454;SDS011;25155;41.890;23.446;2023-06-26T09:46:39;9.20;;;7.10;;
39454;SDS011;25155;41.890;23.446;2023-06-26T09:49:07;9.57;;;6.97;;
39454;SDS011;25155;41.890;23.446;2023-06-26T09:51:36;10.80;;;7.38;;
39454;SDS011;25155;41.890;23.446;2023-06-26T09:54:04;8.38;;;5.85;;
39454;SDS011;25155;41.890;23.446;2023-06-26T09:56:32;9.25;;;5.07;;
39454;SDS011;25155;41.890;23.446;2023-06-26T10:01:30;5.43;;;3.33;;
39454;SDS011;25155;41.890;23.446;2023-06-26T10:03:59;5.78;;;2.85;;
39454;SDS011;25155;41.890;23.446;2023-06-26T10:06:27;5.43;;;2.83;;
39454;SDS011;25155;41.890;23.446;2023-06-26T10:08:58;5.10;;;3.30;;
39454;SDS011;25155;41.890;23.446;2023-06-26T10:11:32;5.82;;;3.67;;
39454;SDS011;25155;41.890;23.446;2023-06-26T10:14:05;4.70;;;3.03;;
39454;SDS011;25155;41.890;23.446;2023-06-26T10:16:34;4.60;;;3.65;;
39454;SDS011;25155;41.890;23.446;2023-06-26T10:19:06;8.07;;;5.45;;
39454;SDS011;25155;41.890;23.446;2023-06-26T10:21:37;8.32;;;4.80;;
39454;SDS011;25155;41.890;23.446;2023-06-26T10:24:06;6.28;;;4.75;;
39454;SDS011;25155;41.890;23.446;2023-06-26T10:26:35;8.45;;;5.30;;
39454;SDS011;25155;41.890;23.446;2023-06-26T10:29:10;7.05;;;5.30;;
39454;SDS011;25155;41.890;23.446;2023-06-26T10:31:40;8.50;;;5.50;;
39454;SDS011;25155;41.890;23.446;2023-06-26T10:34:11;7.30;;;4.80;;
39454;SDS011;25155;41.890;23.446;2023-06-26T10:36:39;6.47;;;4.53;;
39454;SDS011;25155;41.890;23.446;2023-06-26T10:39:07;9.13;;;4.60;;
39454;SDS011;25155;41.890;23.446;2023-06-26T10:41:37;8.50;;;5.32;;
39454;SDS011;25155;41.890;23.446;2023-06-26T10:44:08;6.10;;;4.82;;
39454;SDS011;25155;41.890;23.446;2023-06-26T10:49:29;6.87;;;5.00;;
39454;SDS011;25155;41.890;23.446;2023-06-26T10:51:56;6.93;;;6.18;;
39454;SDS011;25155;41.890;23.446;2023-06-26T10:54:29;7.95;;;6.10;;
39454;SDS011;25155;41.890;23.446;2023-06-26T10:56:58;7.93;;;6.13;;
39454;SDS011;25155;41.890;23.446;2023-06-26T10:59:30;7.85;;;5.70;;
39454;SDS011;25155;41.890;23.446;2023-06-26T11:02:00;7.80;;;5.70;;
39454;SDS011;25155;41.890;23.446;2023-06-26T11:04:38;6.10;;;5.13;;
39454;SDS011;25155;41.890;23.446;2023-06-26T11:07:18;5.30;;;4.55;;
39454;SDS011;25155;41.890;23.446;2023-06-26T11:09:59;6.35;;;5.28;;
39454;SDS011;25155;41.890;23.446;2023-06-26T11:12:36;5.93;;;4.90;;
39454;SDS011;25155;41.890;23.446;2023-06-26T11:15:08;6.15;;;4.88;;
39454;SDS011;25155;41.890;23.446;2023-06-26T11:17:37;5.70;;;4.78;;
39454;SDS011;25155;41.890;23.446;2023-06-26T11:20:05;8.65;;;6.00;;
39454;SDS011;25155;41.890;23.446;2023-06-26T11:22:34;9.88;;;6.22;;
39454;SDS011;25155;41.890;23.446;2023-06-26T11:25:03;8.43;;;6.22;;
39454;SDS011;25155;41.890;23.446;2023-06-26T11:27:32;7.32;;;6.18;;
39454;SDS011;25155;41.890;23.446;2023-06-26T11:29:59;8.25;;;5.80;;
39454;SDS011;25155;41.890;23.446;2023-06-26T11:32:28;6.63;;;4.97;;
39454;SDS011;25155;41.890;23.446;2023-06-26T11:34:55;6.70;;;5.05;;
39454;SDS011;25155;41.890;23.446;2023-06-26T11:37:22;6.85;;;5.47;;
39454;SDS011;25155;41.890;23.446;2023-06-26T11:39:49;6.30;;;5.00;;
39454;SDS011;25155;41.890;23.446;2023-06-26T11:42:17;6.15;;;5.00;;
39454;SDS011;25155;41.890;23.446;2023-06-26T11:44:44;7.18;;;5.68;;
39454;SDS011;25155;41.890;23.446;2023-06-26T11:47:12;6.88;;;5.82;;
39454;SDS011;25155;41.890;23.446;2023-06-26T11:49:43;7.22;;;5.85;;
39454;SDS011;25155;41.890;23.446;2023-06-26T11:52:10;7.93;;;6.33;;
39454;SDS011;25155;41.890;23.446;2023-06-26T11:54:38;6.25;;;5.35;;
39454;SDS011;25155;41.890;23.446;2023-06-26T11:57:05;6.75;;;5.00;;
39454;SDS011;25155;41.890;23.446;2023-06-26T11:59:36;7.45;;;5.80;;
39454;SDS011;25155;41.890;23.446;2023-06-26T12:02:05;6.85;;;5.57;;
39454;SDS011;25155;41.890;23.446;2023-06-26T12:04:33;8.00;;;6.03;;
39454;SDS011;25155;41.890;23.446;2023-06-26T12:07:04;6.28;;;5.63;;
39454;SDS011;25155;41.890;23.446;2023-06-26T12:09:34;5.88;;;5.15;;
39454;SDS011;25155;41.890;23.446;2023-06-26T12:12:07;7.47;;;5.35;;
39454;SDS011;25155;41.890;23.446;2023-06-26T12:14:35;6.00;;;5.18;;
39454;SDS011;25155;41.890;23.446;2023-06-26T12:17:08;5.93;;;4.57;;
39454;SDS011;25155;41.890;23.446;2023-06-26T12:19:36;5.72;;;4.68;;
39454;SDS011;25155;41.890;23.446;2023-06-26T12:22:09;6.28;;;4.68;;
39454;SDS011;25155;41.890;23.446;2023-06-26T12:24:37;6.22;;;4.60;;
39454;SDS011;25155;41.890;23.446;2023-06-26T12:27:07;5.72;;;4.45;;
39454;SDS011;25155;41.890;23.446;2023-06-26T12:29:36;5.63;;;4.13;;
39454;SDS011;25155;41.890;23.446;2023-06-26T12:32:08;7.05;;;5.13;;
39454;SDS011;25155;41.890;23.446;2023-06-26T12:34:37;6.22;;;5.00;;
39454;SDS011;25155;41.890;23.446;2023-06-26T12:37:06;6.57;;;5.22;;
39454;SDS011;25155;41.890;23.446;2023-06-26T12:39:49;5.75;;;5.10;;
39454;SDS011;25155;41.890;23.446;2023-06-26T12:42:18;6.72;;;5.53;;
39454;SDS011;25155;41.890;23.446;2023-06-26T12:44:47;5.50;;;4.40;;
39454;SDS011;25155;41.890;23.446;2023-06-26T12:47:14;9.50;;;5.53;;
39454;SDS011;25155;41.890;23.446;2023-06-26T12:49:43;6.38;;;5.07;;
39454;SDS011;25155;41.890;23.446;2023-06-26T12:52:11;6.07;;;5.03;;
39454;SDS011;25155;41.890;23.446;2023-06-26T12:54:41;6.47;;;5.18;;
39454;SDS011;25155;41.890;23.446;2023-06-26T12:57:10;6.63;;;5.50;;
39454;SDS011;25155;41.890;23.446;2023-06-26T12:59:39;7.95;;;5.32;;
39454;SDS011;25155;41.890;23.446;2023-06-26T13:02:07;8.15;;;5.40;;
39454;SDS011;25155;41.890;23.446;2023-06-26T13:04:36;7.28;;;5.55;;
39454;SDS011;25155;41.890;23.446;2023-06-26T13:07:05;6.40;;;5.10;;
39454;SDS011;25155;41.890;23.446;2023-06-26T13:09:33;9.43;;;5.57;;
39454;SDS011;25155;41.890;23.446;2023-06-26T13:12:02;6.03;;;5.22;;
39454;SDS011;25155;41.890;23.446;2023-06-26T13:14:31;8.05;;;5.90;;
39454;SDS011;25155;41.890;23.446;2023-06-26T13:16:59;7.00;;;5.68;;
39454;SDS011;25155;41.890;23.446;2023-06-26T13:19:27;6.68;;;5.25;;
39454;SDS011;25155;41.890;23.446;2023-06-26T13:21:54;7.47;;;5.65;;
39454;SDS011;25155;41.890;23.446;2023-06-26T13:24:22;6.47;;;5.60;;
39454;SDS011;25155;41.890;23.446;2023-06-26T13:26:49;6.22;;;5.03;;
39454;SDS011;25155;41.890;23.446;2023-06-26T13:29:16;7.18;;;5.03;;
39454;SDS011;25155;41.890;23.446;2023-06-26T13:31:45;7.55;;;5.50;;
39454;SDS011;25155;41.890;23.446;2023-06-26T13:34:19;6.38;;;5.43;;
39454;SDS011;25155;41.890;23.446;2023-06-26T13:36:49;8.50;;;6.00;;
39454;SDS011;25155;41.890;23.446;2023-06-26T13:39:17;6.82;;;5.30;;
39454;SDS011;25155;41.890;23.446;2023-06-26T13:41:44;7.63;;;5.75;;
39454;SDS011;25155;41.890;23.446;2023-06-26T13:44:11;6.38;;;5.53;;
39454;SDS011;25155;41.890;23.446;2023-06-26T13:46:38;7.13;;;5.15;;
39454;SDS011;25155;41.890;23.446;2023-06-26T13:49:07;8.32;;;6.05;;
39454;SDS011;25155;41.890;23.446;2023-06-26T13:51:34;7.63;;;6.10;;
39454;SDS011;25155;41.890;23.446;2023-06-26T13:54:01;7.30;;;6.10;;
39454;SDS011;25155;41.890;23.446;2023-06-26T13:56:28;7.00;;;5.70;;
39454;SDS011;25155;41.890;23.446;2023-06-26T13:58:56;6.60;;;5.28;;
39454;SDS011;25155;41.890;23.446;2023-06-26T14:01:23;8.02;;;5.00;;
39454;SDS011;25155;41.890;23.446;2023-06-26T14:03:50;6.88;;;5.43;;
39454;SDS011;25155;41.890;23.446;2023-06-26T14:06:19;6.40;;;5.70;;
39454;SDS011;25155;41.890;23.446;2023-06-26T14:08:46;8.02;;;5.47;;
39454;SDS011;25155;41.890;23.446;2023-06-26T14:11:13;7.22;;;5.68;;
39454;SDS011;25155;41.890;23.446;2023-06-26T14:13:41;7.10;;;5.20;;
39454;SDS011;25155;41.890;23.446;2023-06-26T14:16:08;7.20;;;4.80;;
39454;SDS011;25155;41.890;23.446;2023-06-26T14:18:35;6.03;;;5.07;;
39454;SDS011;25155;41.890;23.446;2023-06-26T14:21:03;8.07;;;5.68;;
39454;SDS011;25155;41.890;23.446;2023-06-26T14:23:31;8.18;;;5.57;;
39454;SDS011;25155;41.890;23.446;2023-06-26T14:25:58;5.72;;;4.95;;
39454;SDS011;25155;41.890;23.446;2023-06-26T14:28:25;8.30;;;5.65;;
39454;SDS011;25155;41.890;23.446;2023-06-26T14:30:52;6.90;;;5.82;;
39454;SDS011;25155;41.890;23.446;2023-06-26T14:33:19;6.95;;;5.55;;
39454;SDS011;25155;41.890;23.446;2023-06-26T14:35:46;8.27;;;5.90;;
39454;SDS011;25155;41.890;23.446;2023-06-26T14:38:13;6.53;;;4.95;;